sensor_id;sensor_type;location;lat;lon;timestamp;temperature;humidity
3919;DHT22;1974;48.670;8.994;2023-10-08T00:01:38;14.90;99.90
3919;DHT22;1974;48.670;8.994;2023-10-08T00:04:09;15.00;99.90
3919;DHT22;1974;48.670;8.994;2023-10-08T00:06:37;15.00;99.90
3919;DHT22;1974;48.670;8.994;2023-10-08T00:09:04;15.00;99.90
3919;DHT22;1974;48.670;8.994;2023-10-08T00:11:34;15.00;99.90
3919;DHT22;1974;48.670;8.994;2023-10-08T00:14:02;15.10;99.90
3919;DHT22;1974;48.670;8.994;2023-10-08T00:16:32;15.10;99.90
3919;DHT22;1974;48.670;8.994;2023-10-08T00:18:59;15.10;99.90
3919;DHT22;1974;48.670;8.994;2023-10-08T00:21:34;15.00;99.90
3919;DHT22;1974;48.670;8.994;2023-10-08T00:24:03;15.10;99.90
3919;DHT22;1974;48.670;8.994;2023-10-08T00:26:33;15.10;99.90
3919;DHT22;1974;48.670;8.994;2023-10-08T00:29:06;15.10;99.90
3919;DHT22;1974;48.670;8.994;2023-10-08T00:31:41;15.10;99.90
3919;DHT22;1974;48.670;8.994;2023-10-08T00:34:10;15.10;99.90
3919;DHT22;1974;48.670;8.994;2023-10-08T00:36:41;15.10;99.90
3919;DHT22;1974;48.670;8.994;2023-10-08T00:39:09;15.10;99.90
3919;DHT22;1974;48.670;8.994;2023-10-08T00:41:40;15.10;99.90
3919;DHT22;1974;48.670;8.994;2023-10-08T00:44:08;15.00;99.90
3919;DHT22;1974;48.670;8.994;2023-10-08T00:46:38;15.00;99.90
3919;DHT22;1974;48.670;8.994;2023-10-08T00:49:08;15.30;99.90
3919;DHT22;1974;48.670;8.994;2023-10-08T00:51:52;15.00;99.90
3919;DHT22;1974;48.670;8.994;2023-10-08T00:54:29;15.50;99.90
3919;DHT22;1974;48.670;8.994;2023-10-08T00:56:59;15.00;99.90
3919;DHT22;1974;48.670;8.994;2023-10-08T00:59:30;15.00;99.90
3919;DHT22;1974;48.670;8.994;2023-10-08T01:02:02;15.00;99.90
3919;DHT22;1974;48.670;8.994;2023-10-08T01:04:34;15.40;99.90
3919;DHT22;1974;48.670;8.994;2023-10-08T01:07:05;15.10;99.90
3919;DHT22;1974;48.670;8.994;2023-10-08T01:09:39;15.10;99.90
3919;DHT22;1974;48.670;8.994;2023-10-08T01:12:09;15.10;99.90
3919;DHT22;1974;48.670;8.994;2023-10-08T01:14:38;15.00;99.90
3919;DHT22;1974;48.670;8.994;2023-10-08T01:17:08;15.00;99.90
3919;DHT22;1974;48.670;8.994;2023-10-08T01:19:35;15.10;99.90
3919;DHT22;1974;48.670;8.994;2023-10-08T01:22:07;15.10;99.90
3919;DHT22;1974;48.670;8.994;2023-10-08T01:24:35;15.10;99.90
3919;DHT22;1974;48.670;8.994;2023-10-08T01:27:02;15.10;99.90
3919;DHT22;1974;48.670;8.994;2023-10-08T01:29:30;15.10;99.90
3919;DHT22;1974;48.670;8.994;2023-10-08T01:31:57;15.10;99.90
3919;DHT22;1974;48.670;8.994;2023-10-08T01:34:27;15.10;99.90
3919;DHT22;1974;48.670;8.994;2023-10-08T01:36:56;15.10;99.90
3919;DHT22;1974;48.670;8.994;2023-10-08T01:39:28;15.00;99.90
3919;DHT22;1974;48.670;8.994;2023-10-08T01:41:57;15.00;99.90
3919;DHT22;1974;48.670;8.994;2023-10-08T01:44:24;14.90;99.90
3919;DHT22;1974;48.670;8.994;2023-10-08T01:46:51;14.90;99.90
3919;DHT22;1974;48.670;8.994;2023-10-08T01:49:18;15.00;99.90
3919;DHT22;1974;48.670;8.994;2023-10-08T01:51:48;15.00;99.90
3919;DHT22;1974;48.670;8.994;2023-10-08T01:54:16;14.90;99.90
3919;DHT22;1974;48.670;8.994;2023-10-08T01:56:48;15.00;99.90
3919;DHT22;1974;48.670;8.994;2023-10-08T01:59:15;15.00;99.90
3919;DHT22;1974;48.670;8.994;2023-10-08T02:01:42;14.90;99.90
3919;DHT22;1974;48.670;8.994;2023-10-08T02:04:11;14.90;99.90
3919;DHT22;1974;48.670;8.994;2023-10-08T02:06:38;14.90;99.90
3919;DHT22;1974;48.670;8.994;2023-10-08T02:09:09;15.00;99.90
3919;DHT22;1974;48.670;8.994;2023-10-08T02:11:46;14.90;99.90
3919;DHT22;1974;48.670;8.994;2023-10-08T02:14:16;15.00;99.90
3919;DHT22;1974;48.670;8.994;2023-10-08T02:16:44;15.00;99.90
3919;DHT22;1974;48.670;8.994;2023-10-08T02:19:10;14.90;99.90
3919;DHT22;1974;48.670;8.994;2023-10-08T02:21:37;14.90;99.90
3919;DHT22;1974;48.670;8.994;2023-10-08T02:24:07;14.90;99.90
3919;DHT22;1974;48.670;8.994;2023-10-08T02:26:36;15.00;99.90
3919;DHT22;1974;48.670;8.994;2023-10-08T02:29:03;14.90;99.90
3919;DHT22;1974;48.670;8.994;2023-10-08T02:31:37;14.90;99.90
3919;DHT22;1974;48.670;8.994;2023-10-08T02:34:04;14.90;99.90
3919;DHT22;1974;48.670;8.994;2023-10-08T02:36:33;14.80;99.90
3919;DHT22;1974;48.670;8.994;2023-10-08T02:39:01;14.80;99.90
3919;DHT22;1974;48.670;8.994;2023-10-08T02:41:31;14.70;99.90
3919;DHT22;1974;48.670;8.994;2023-10-08T02:43:58;14.60;99.90
3919;DHT22;1974;48.670;8.994;2023-10-08T02:46:25;14.60;99.90
3919;DHT22;1974;48.670;8.994;2023-10-08T02:48:53;14.50;99.90
3919;DHT22;1974;48.670;8.994;2023-10-08T02:51:20;14.50;99.90
3919;DHT22;1974;48.670;8.994;2023-10-08T02:53:47;14.60;99.90
3919;DHT22;1974;48.670;8.994;2023-10-08T02:56:15;14.70;99.90
3919;DHT22;1974;48.670;8.994;2023-10-08T02:58:44;14.20;99.90
3919;DHT22;1974;48.670;8.994;2023-10-08T03:01:12;14.20;99.90
3919;DHT22;1974;48.670;8.994;2023-10-08T03:03:40;14.20;99.90
3919;DHT22;1974;48.670;8.994;2023-10-08T03:06:09;14.10;99.90
3919;DHT22;1974;48.670;8.994;2023-10-08T03:08:38;14.10;99.90
3919;DHT22;1974;48.670;8.994;2023-10-08T03:11:09;13.90;99.90
3919;DHT22;1974;48.670;8.994;2023-10-08T03:13:43;13.90;99.90
3919;DHT22;1974;48.670;8.994;2023-10-08T03:16:12;13.90;99.90
3919;DHT22;1974;48.670;8.994;2023-10-08T03:18:40;13.90;99.90
3919;DHT22;1974;48.670;8.994;2023-10-08T03:21:10;13.80;99.90
3919;DHT22;1974;48.670;8.994;2023-10-08T03:23:46;13.80;99.90
3919;DHT22;1974;48.670;8.994;2023-10-08T03:26:14;13.70;99.90
3919;DHT22;1974;48.670;8.994;2023-10-08T03:28:59;13.70;99.90
3919;DHT22;1974;48.670;8.994;2023-10-08T03:31:30;13.70;99.90
3919;DHT22;1974;48.670;8.994;2023-10-08T03:34:15;13.70;99.90
3919;DHT22;1974;48.670;8.994;2023-10-08T03:36:46;13.70;99.90
3919;DHT22;1974;48.670;8.994;2023-10-08T03:39:15;13.50;99.90
3919;DHT22;1974;48.670;8.994;2023-10-08T03:41:44;13.60;99.90
3919;DHT22;1974;48.670;8.994;2023-10-08T03:44:25;13.60;99.90
3919;DHT22;1974;48.670;8.994;2023-10-08T03:46:55;13.60;99.90
3919;DHT22;1974;48.670;8.994;2023-10-08T03:49:22;13.60;99.90
3919;DHT22;1974;48.670;8.994;2023-10-08T03:51:53;13.60;99.90
3919;DHT22;1974;48.670;8.994;2023-10-08T03:54:23;13.60;99.90
3919;DHT22;1974;48.670;8.994;2023-10-08T03:56:55;13.50;99.90
3919;DHT22;1974;48.670;8.994;2023-10-08T03:59:23;13.60;99.90
3919;DHT22;1974;48.670;8.994;2023-10-08T04:01:57;13.50;99.90
3919;DHT22;1974;48.670;8.994;2023-10-08T04:04:34;13.50;99.90
3919;DHT22;1974;48.670;8.994;2023-10-08T04:07:16;13.50;99.90
3919;DHT22;1974;48.670;8.994;2023-10-08T04:09:55;13.50;99.90
3919;DHT22;1974;48.670;8.994;2023-10-08T04:12:31;13.50;99.90
3919;DHT22;1974;48.670;8.994;2023-10-08T04:15:00;13.50;99.90
3919;DHT22;1974;48.670;8.994;2023-10-08T04:17:27;13.50;99.90
3919;DHT22;1974;48.670;8.994;2023-10-08T04:19:54;13.50;99.90
3919;DHT22;1974;48.670;8.994;2023-10-08T04:22:25;13.50;99.90
3919;DHT22;1974;48.670;8.994;2023-10-08T04:24:51;13.50;99.90
3919;DHT22;1974;48.670;8.994;2023-10-08T04:27:19;13.50;99.90
3919;DHT22;1974;48.670;8.994;2023-10-08T04:29:47;13.40;99.90
3919;DHT22;1974;48.670;8.994;2023-10-08T04:32:15;13.40;99.90
3919;DHT22;1974;48.670;8.994;2023-10-08T04:34:50;13.40;99.90
3919;DHT22;1974;48.670;8.994;2023-10-08T04:37:18;13.40;99.90
3919;DHT22;1974;48.670;8.994;2023-10-08T04:39:47;13.50;99.90
3919;DHT22;1974;48.670;8.994;2023-10-08T04:42:23;13.50;99.90
3919;DHT22;1974;48.670;8.994;2023-10-08T04:44:52;13.60;99.90
3919;DHT22;1974;48.670;8.994;2023-10-08T04:47:19;13.60;99.90
3919;DHT22;1974;48.670;8.994;2023-10-08T04:49:57;13.70;99.90
3919;DHT22;1974;48.670;8.994;2023-10-08T04:52:23;13.70;99.90
3919;DHT22;1974;48.670;8.994;2023-10-08T04:54:54;13.70;99.90
3919;DHT22;1974;48.670;8.994;2023-10-08T04:57:22;13.80;99.90
3919;DHT22;1974;48.670;8.994;2023-10-08T04:59:51;13.80;99.90
3919;DHT22;1974;48.670;8.994;2023-10-08T05:02:22;13.90;99.90
3919;DHT22;1974;48.670;8.994;2023-10-08T05:05:00;13.90;99.90
3919;DHT22;1974;48.670;8.994;2023-10-08T05:07:44;14.00;99.90
3919;DHT22;1974;48.670;8.994;2023-10-08T05:10:29;14.00;99.90
3919;DHT22;1974;48.670;8.994;2023-10-08T05:13:26;14.00;99.90
3919;DHT22;1974;48.670;8.994;2023-10-08T05:15:58;14.00;99.90
3919;DHT22;1974;48.670;8.994;2023-10-08T05:18:37;14.10;99.90
3919;DHT22;1974;48.670;8.994;2023-10-08T05:21:39;14.10;99.90
3919;DHT22;1974;48.670;8.994;2023-10-08T05:24:27;14.10;99.90
3919;DHT22;1974;48.670;8.994;2023-10-08T05:29:49;14.10;99.90
3919;DHT22;1974;48.670;8.994;2023-10-08T05:32:37;14.10;99.90
3919;DHT22;1974;48.670;8.994;2023-10-08T05:35:31;14.10;99.90
3919;DHT22;1974;48.670;8.994;2023-10-08T05:38:15;14.10;99.90
3919;DHT22;1974;48.670;8.994;2023-10-08T05:40:47;14.10;99.90
3919;DHT22;1974;48.670;8.994;2023-10-08T05:43:54;14.10;99.90
3919;DHT22;1974;48.670;8.994;2023-10-08T05:46:35;14.10;99.90
3919;DHT22;1974;48.670;8.994;2023-10-08T05:49:16;14.10;99.90
3919;DHT22;1974;48.670;8.994;2023-10-08T05:51:58;14.20;99.90
3919;DHT22;1974;48.670;8.994;2023-10-08T05:54:50;14.10;99.90
3919;DHT22;1974;48.670;8.994;2023-10-08T05:57:34;14.30;99.90
3919;DHT22;1974;48.670;8.994;2023-10-08T06:00:14;14.10;99.90
3919;DHT22;1974;48.670;8.994;2023-10-08T06:02:57;14.10;99.90
3919;DHT22;1974;48.670;8.994;2023-10-08T06:05:36;14.10;99.90
3919;DHT22;1974;48.670;8.994;2023-10-08T06:08:11;14.20;99.90
3919;DHT22;1974;48.670;8.994;2023-10-08T06:10:38;14.20;99.90
3919;DHT22;1974;48.670;8.994;2023-10-08T06:13:22;14.20;99.90
3919;DHT22;1974;48.670;8.994;2023-10-08T06:15:57;14.30;99.90
3919;DHT22;1974;48.670;8.994;2023-10-08T06:18:34;14.30;99.90
3919;DHT22;1974;48.670;8.994;2023-10-08T06:21:01;14.30;99.90
3919;DHT22;1974;48.670;8.994;2023-10-08T06:23:33;14.30;99.90
3919;DHT22;1974;48.670;8.994;2023-10-08T06:26:01;14.40;99.90
3919;DHT22;1974;48.670;8.994;2023-10-08T06:28:41;14.30;99.90
3919;DHT22;1974;48.670;8.994;2023-10-08T06:31:10;14.40;99.90
3919;DHT22;1974;48.670;8.994;2023-10-08T06:33:42;14.50;99.90
3919;DHT22;1974;48.670;8.994;2023-10-08T06:36:09;14.50;99.90
3919;DHT22;1974;48.670;8.994;2023-10-08T06:38:41;14.50;99.90
3919;DHT22;1974;48.670;8.994;2023-10-08T06:41:10;14.80;99.90
3919;DHT22;1974;48.670;8.994;2023-10-08T06:43:41;14.60;99.90
3919;DHT22;1974;48.670;8.994;2023-10-08T06:46:15;14.60;99.90
3919;DHT22;1974;48.670;8.994;2023-10-08T06:48:48;14.50;99.90
3919;DHT22;1974;48.670;8.994;2023-10-08T06:51:16;14.70;99.90
3919;DHT22;1974;48.670;8.994;2023-10-08T06:53:47;14.70;99.90
3919;DHT22;1974;48.670;8.994;2023-10-08T06:56:15;14.70;99.90
3919;DHT22;1974;48.670;8.994;2023-10-08T06:58:43;14.70;99.90
3919;DHT22;1974;48.670;8.994;2023-10-08T07:01:15;14.70;99.90
3919;DHT22;1974;48.670;8.994;2023-10-08T07:03:46;14.80;99.90
3919;DHT22;1974;48.670;8.994;2023-10-08T07:06:14;14.90;99.90
3919;DHT22;1974;48.670;8.994;2023-10-08T07:08:51;15.00;99.90
3919;DHT22;1974;48.670;8.994;2023-10-08T07:11:21;15.10;99.90
3919;DHT22;1974;48.670;8.994;2023-10-08T07:13:48;15.20;99.90
3919;DHT22;1974;48.670;8.994;2023-10-08T07:16:17;15.30;99.90
3919;DHT22;1974;48.670;8.994;2023-10-08T07:18:47;15.30;99.90
3919;DHT22;1974;48.670;8.994;2023-10-08T07:21:18;15.20;99.90
3919;DHT22;1974;48.670;8.994;2023-10-08T07:23:49;15.20;99.90
3919;DHT22;1974;48.670;8.994;2023-10-08T07:26:22;15.20;99.90
3919;DHT22;1974;48.670;8.994;2023-10-08T07:28:51;15.30;99.90
3919;DHT22;1974;48.670;8.994;2023-10-08T07:31:21;15.30;99.90
3919;DHT22;1974;48.670;8.994;2023-10-08T07:33:50;15.40;99.90
3919;DHT22;1974;48.670;8.994;2023-10-08T07:36:22;15.50;99.90
3919;DHT22;1974;48.670;8.994;2023-10-08T07:38:49;15.60;99.90
3919;DHT22;1974;48.670;8.994;2023-10-08T07:41:16;15.70;99.90
3919;DHT22;1974;48.670;8.994;2023-10-08T07:43:45;15.80;99.90
3919;DHT22;1974;48.670;8.994;2023-10-08T07:46:20;15.90;99.90
3919;DHT22;1974;48.670;8.994;2023-10-08T07:48:46;16.00;99.90
3919;DHT22;1974;48.670;8.994;2023-10-08T07:51:15;16.10;99.90
3919;DHT22;1974;48.670;8.994;2023-10-08T07:53:43;16.20;99.90
3919;DHT22;1974;48.670;8.994;2023-10-08T07:56:10;16.30;99.90
3919;DHT22;1974;48.670;8.994;2023-10-08T07:58:37;16.30;99.90
3919;DHT22;1974;48.670;8.994;2023-10-08T08:01:05;16.40;99.90
3919;DHT22;1974;48.670;8.994;2023-10-08T08:03:34;16.50;99.90
3919;DHT22;1974;48.670;8.994;2023-10-08T08:06:03;16.50;99.90
3919;DHT22;1974;48.670;8.994;2023-10-08T08:08:32;16.60;99.90
3919;DHT22;1974;48.670;8.994;2023-10-08T08:10:59;16.70;99.90
3919;DHT22;1974;48.670;8.994;2023-10-08T08:13:31;16.60;99.90
3919;DHT22;1974;48.670;8.994;2023-10-08T08:15:59;16.60;99.90
3919;DHT22;1974;48.670;8.994;2023-10-08T08:18:37;16.60;99.90
3919;DHT22;1974;48.670;8.994;2023-10-08T08:21:08;16.70;99.90
3919;DHT22;1974;48.670;8.994;2023-10-08T08:23:40;16.70;99.90
3919;DHT22;1974;48.670;8.994;2023-10-08T08:26:07;16.90;99.90
3919;DHT22;1974;48.670;8.994;2023-10-08T08:28:38;17.10;99.90
3919;DHT22;1974;48.670;8.994;2023-10-08T08:31:05;17.30;99.90
3919;DHT22;1974;48.670;8.994;2023-10-08T08:33:40;17.50;99.90
3919;DHT22;1974;48.670;8.994;2023-10-08T08:36:22;17.70;99.90
3919;DHT22;1974;48.670;8.994;2023-10-08T08:38:50;17.90;99.90
3919;DHT22;1974;48.670;8.994;2023-10-08T08:41:17;18.00;99.90
3919;DHT22;1974;48.670;8.994;2023-10-08T08:43:47;18.30;99.90
3919;DHT22;1974;48.670;8.994;2023-10-08T08:46:15;18.50;99.90
3919;DHT22;1974;48.670;8.994;2023-10-08T08:48:44;18.80;99.90
3919;DHT22;1974;48.670;8.994;2023-10-08T08:51:13;19.00;99.90
3919;DHT22;1974;48.670;8.994;2023-10-08T08:53:40;19.40;99.90
3919;DHT22;1974;48.670;8.994;2023-10-08T08:56:09;19.70;99.90
3919;DHT22;1974;48.670;8.994;2023-10-08T08:58:36;19.90;99.90
3919;DHT22;1974;48.670;8.994;2023-10-08T09:01:06;20.10;99.90
3919;DHT22;1974;48.670;8.994;2023-10-08T09:03:35;20.40;99.90
3919;DHT22;1974;48.670;8.994;2023-10-08T09:06:04;21.00;99.90
3919;DHT22;1974;48.670;8.994;2023-10-08T09:08:34;21.40;99.90
3919;DHT22;1974;48.670;8.994;2023-10-08T09:11:01;21.70;99.90
3919;DHT22;1974;48.670;8.994;2023-10-08T09:13:30;21.80;99.90
3919;DHT22;1974;48.670;8.994;2023-10-08T09:16:02;21.80;99.90
3919;DHT22;1974;48.670;8.994;2023-10-08T09:18:33;22.00;99.90
3919;DHT22;1974;48.670;8.994;2023-10-08T09:21:14;22.20;99.90
3919;DHT22;1974;48.670;8.994;2023-10-08T09:23:41;22.40;99.90
3919;DHT22;1974;48.670;8.994;2023-10-08T09:26:10;22.40;99.90
3919;DHT22;1974;48.670;8.994;2023-10-08T09:28:39;22.40;99.90
3919;DHT22;1974;48.670;8.994;2023-10-08T09:31:10;22.20;99.90
3919;DHT22;1974;48.670;8.994;2023-10-08T09:33:38;22.10;99.90
3919;DHT22;1974;48.670;8.994;2023-10-08T09:36:06;22.40;99.90
3919;DHT22;1974;48.670;8.994;2023-10-08T09:38:37;23.10;99.90
3919;DHT22;1974;48.670;8.994;2023-10-08T09:41:04;23.80;99.90
3919;DHT22;1974;48.670;8.994;2023-10-08T09:43:34;24.20;99.90
3919;DHT22;1974;48.670;8.994;2023-10-08T09:46:07;24.30;99.90
3919;DHT22;1974;48.670;8.994;2023-10-08T09:48:37;24.20;99.90
3919;DHT22;1974;48.670;8.994;2023-10-08T09:51:05;24.00;99.90
3919;DHT22;1974;48.670;8.994;2023-10-08T09:53:40;23.50;99.90
3919;DHT22;1974;48.670;8.994;2023-10-08T09:56:13;23.10;99.90
3919;DHT22;1974;48.670;8.994;2023-10-08T09:58:41;22.70;99.90
3919;DHT22;1974;48.670;8.994;2023-10-08T10:01:10;22.30;99.90
3919;DHT22;1974;48.670;8.994;2023-10-08T10:03:37;22.10;99.90
3919;DHT22;1974;48.670;8.994;2023-10-08T10:06:12;22.00;99.90
3919;DHT22;1974;48.670;8.994;2023-10-08T10:08:41;22.00;99.90
3919;DHT22;1974;48.670;8.994;2023-10-08T10:11:08;22.00;99.90
3919;DHT22;1974;48.670;8.994;2023-10-08T10:13:39;22.00;99.90
3919;DHT22;1974;48.670;8.994;2023-10-08T10:16:06;22.00;99.90
3919;DHT22;1974;48.670;8.994;2023-10-08T10:18:34;22.00;99.90
3919;DHT22;1974;48.670;8.994;2023-10-08T10:21:24;21.90;99.90
3919;DHT22;1974;48.670;8.994;2023-10-08T10:23:53;21.90;99.90
3919;DHT22;1974;48.670;8.994;2023-10-08T10:26:25;21.80;99.90
3919;DHT22;1974;48.670;8.994;2023-10-08T10:29:18;21.90;99.90
3919;DHT22;1974;48.670;8.994;2023-10-08T10:31:47;21.90;99.90
3919;DHT22;1974;48.670;8.994;2023-10-08T10:34:16;22.10;99.90
3919;DHT22;1974;48.670;8.994;2023-10-08T10:36:45;22.70;99.90
3919;DHT22;1974;48.670;8.994;2023-10-08T10:39:16;23.40;99.90
3919;DHT22;1974;48.670;8.994;2023-10-08T10:41:52;24.10;99.90
3919;DHT22;1974;48.670;8.994;2023-10-08T10:44:23;24.60;99.60
3919;DHT22;1974;48.670;8.994;2023-10-08T10:46:50;24.80;98.60
3919;DHT22;1974;48.670;8.994;2023-10-08T10:49:17;24.90;99.20
3919;DHT22;1974;48.670;8.994;2023-10-08T10:51:45;24.90;98.90
3919;DHT22;1974;48.670;8.994;2023-10-08T10:54:14;24.80;97.40
3919;DHT22;1974;48.670;8.994;2023-10-08T10:56:46;24.60;98.00
3919;DHT22;1974;48.670;8.994;2023-10-08T10:59:13;24.50;98.80
3919;DHT22;1974;48.670;8.994;2023-10-08T11:01:45;24.50;99.20
3919;DHT22;1974;48.670;8.994;2023-10-08T11:04:18;24.40;97.90
3919;DHT22;1974;48.670;8.994;2023-10-08T11:06:46;24.40;98.40
3919;DHT22;1974;48.670;8.994;2023-10-08T11:09:15;24.40;98.10
3919;DHT22;1974;48.670;8.994;2023-10-08T11:11:57;24.30;97.40
3919;DHT22;1974;48.670;8.994;2023-10-08T11:14:25;24.50;96.80
3919;DHT22;1974;48.670;8.994;2023-10-08T11:16:53;24.50;96.70
3919;DHT22;1974;48.670;8.994;2023-10-08T11:19:19;24.40;97.20
3919;DHT22;1974;48.670;8.994;2023-10-08T11:21:49;24.30;97.30
3919;DHT22;1974;48.670;8.994;2023-10-08T11:24:28;24.30;97.10
3919;DHT22;1974;48.670;8.994;2023-10-08T11:26:58;24.30;96.50
3919;DHT22;1974;48.670;8.994;2023-10-08T11:29:41;24.40;96.10
3919;DHT22;1974;48.670;8.994;2023-10-08T11:32:09;24.30;96.20
3919;DHT22;1974;48.670;8.994;2023-10-08T11:34:38;24.20;95.90
3919;DHT22;1974;48.670;8.994;2023-10-08T11:37:05;24.10;95.90
3919;DHT22;1974;48.670;8.994;2023-10-08T11:39:46;24.00;95.80
3919;DHT22;1974;48.670;8.994;2023-10-08T11:42:14;24.00;95.50
3919;DHT22;1974;48.670;8.994;2023-10-08T11:45:06;24.00;95.70
3919;DHT22;1974;48.670;8.994;2023-10-08T11:47:44;23.90;95.90
3919;DHT22;1974;48.670;8.994;2023-10-08T11:50:14;23.90;95.40
3919;DHT22;1974;48.670;8.994;2023-10-08T11:52:45;23.70;95.50
3919;DHT22;1974;48.670;8.994;2023-10-08T11:55:13;23.70;95.00
3919;DHT22;1974;48.670;8.994;2023-10-08T11:57:45;23.60;95.50
3919;DHT22;1974;48.670;8.994;2023-10-08T12:00:15;23.50;95.90
3919;DHT22;1974;48.670;8.994;2023-10-08T12:02:51;23.50;96.00
3919;DHT22;1974;48.670;8.994;2023-10-08T12:05:20;23.40;95.90
3919;DHT22;1974;48.670;8.994;2023-10-08T12:07:49;23.40;95.20
3919;DHT22;1974;48.670;8.994;2023-10-08T12:10:19;23.40;95.70
3919;DHT22;1974;48.670;8.994;2023-10-08T12:12:49;23.30;95.90
3919;DHT22;1974;48.670;8.994;2023-10-08T12:15:17;23.00;95.50
3919;DHT22;1974;48.670;8.994;2023-10-08T12:17:47;23.00;95.90
3919;DHT22;1974;48.670;8.994;2023-10-08T12:20:34;22.80;95.80
3919;DHT22;1974;48.670;8.994;2023-10-08T12:23:03;22.80;96.40
3919;DHT22;1974;48.670;8.994;2023-10-08T12:25:32;22.70;96.60
3919;DHT22;1974;48.670;8.994;2023-10-08T12:28:00;22.70;96.00
3919;DHT22;1974;48.670;8.994;2023-10-08T12:30:29;22.60;96.20
3919;DHT22;1974;48.670;8.994;2023-10-08T12:33:07;22.60;96.40
3919;DHT22;1974;48.670;8.994;2023-10-08T12:35:38;22.50;96.80
3919;DHT22;1974;48.670;8.994;2023-10-08T12:38:05;22.40;97.90
3919;DHT22;1974;48.670;8.994;2023-10-08T12:40:35;22.40;97.20
3919;DHT22;1974;48.670;8.994;2023-10-08T12:43:14;22.30;98.10
3919;DHT22;1974;48.670;8.994;2023-10-08T12:45:45;22.30;98.20
3919;DHT22;1974;48.670;8.994;2023-10-08T12:48:18;22.20;98.00
3919;DHT22;1974;48.670;8.994;2023-10-08T12:50:45;22.20;98.80
3919;DHT22;1974;48.670;8.994;2023-10-08T12:53:19;22.20;98.50
3919;DHT22;1974;48.670;8.994;2023-10-08T12:55:50;22.20;97.90
3919;DHT22;1974;48.670;8.994;2023-10-08T12:58:21;22.20;98.00
3919;DHT22;1974;48.670;8.994;2023-10-08T13:00:52;22.30;97.90
3919;DHT22;1974;48.670;8.994;2023-10-08T13:03:23;22.30;98.20
3919;DHT22;1974;48.670;8.994;2023-10-08T13:05:50;22.20;98.30
3919;DHT22;1974;48.670;8.994;2023-10-08T13:08:18;22.20;98.30
3919;DHT22;1974;48.670;8.994;2023-10-08T13:10:45;22.20;97.70
3919;DHT22;1974;48.670;8.994;2023-10-08T13:13:13;22.20;97.30
3919;DHT22;1974;48.670;8.994;2023-10-08T13:15:40;22.40;97.20
3919;DHT22;1974;48.670;8.994;2023-10-08T13:18:08;22.40;97.20
3919;DHT22;1974;48.670;8.994;2023-10-08T13:20:35;22.40;96.60
3919;DHT22;1974;48.670;8.994;2023-10-08T13:23:02;22.40;96.60
3919;DHT22;1974;48.670;8.994;2023-10-08T13:25:29;22.30;97.10
3919;DHT22;1974;48.670;8.994;2023-10-08T13:27:58;22.20;97.80
3919;DHT22;1974;48.670;8.994;2023-10-08T13:30:27;22.20;97.40
3919;DHT22;1974;48.670;8.994;2023-10-08T13:32:54;22.10;97.20
3919;DHT22;1974;48.670;8.994;2023-10-08T13:35:20;22.10;97.60
3919;DHT22;1974;48.670;8.994;2023-10-08T13:37:47;22.20;97.60
3919;DHT22;1974;48.670;8.994;2023-10-08T13:40:14;22.10;98.40
3919;DHT22;1974;48.670;8.994;2023-10-08T13:42:41;22.10;98.60
3919;DHT22;1974;48.670;8.994;2023-10-08T13:45:09;22.10;98.50
3919;DHT22;1974;48.670;8.994;2023-10-08T13:47:43;22.00;98.20
3919;DHT22;1974;48.670;8.994;2023-10-08T13:50:13;22.00;97.70
3919;DHT22;1974;48.670;8.994;2023-10-08T13:52:41;22.00;97.60
3919;DHT22;1974;48.670;8.994;2023-10-08T13:55:10;22.00;97.80
3919;DHT22;1974;48.670;8.994;2023-10-08T13:57:39;22.00;96.80
3919;DHT22;1974;48.670;8.994;2023-10-08T14:00:08;22.10;97.60
3919;DHT22;1974;48.670;8.994;2023-10-08T14:02:42;22.00;96.70
3919;DHT22;1974;48.670;8.994;2023-10-08T14:05:10;22.10;95.40
3919;DHT22;1974;48.670;8.994;2023-10-08T14:07:41;22.10;95.00
3919;DHT22;1974;48.670;8.994;2023-10-08T14:10:10;22.10;94.10
3919;DHT22;1974;48.670;8.994;2023-10-08T14:12:44;22.20;93.90
3919;DHT22;1974;48.670;8.994;2023-10-08T14:15:15;22.20;94.60
3919;DHT22;1974;48.670;8.994;2023-10-08T14:17:44;22.20;94.20
3919;DHT22;1974;48.670;8.994;2023-10-08T14:20:14;22.20;93.80
3919;DHT22;1974;48.670;8.994;2023-10-08T14:22:47;22.20;94.20
3919;DHT22;1974;48.670;8.994;2023-10-08T14:25:17;22.20;94.30
3919;DHT22;1974;48.670;8.994;2023-10-08T14:27:50;22.20;94.00
3919;DHT22;1974;48.670;8.994;2023-10-08T14:30:18;22.10;94.60
3919;DHT22;1974;48.670;8.994;2023-10-08T14:32:50;22.10;95.30
3919;DHT22;1974;48.670;8.994;2023-10-08T14:35:17;22.00;94.90
3919;DHT22;1974;48.670;8.994;2023-10-08T14:38:01;21.90;94.90
3919;DHT22;1974;48.670;8.994;2023-10-08T14:40:46;21.90;93.90
3919;DHT22;1974;48.670;8.994;2023-10-08T14:43:30;21.90;94.90
3919;DHT22;1974;48.670;8.994;2023-10-08T14:46:00;21.90;95.70
3919;DHT22;1974;48.670;8.994;2023-10-08T14:48:31;21.80;94.60
3919;DHT22;1974;48.670;8.994;2023-10-08T14:51:00;21.80;94.50
3919;DHT22;1974;48.670;8.994;2023-10-08T14:53:28;21.80;93.80
3919;DHT22;1974;48.670;8.994;2023-10-08T14:55:55;21.80;94.90
3919;DHT22;1974;48.670;8.994;2023-10-08T14:58:23;21.80;95.00
3919;DHT22;1974;48.670;8.994;2023-10-08T15:00:51;21.70;96.10
3919;DHT22;1974;48.670;8.994;2023-10-08T15:03:19;21.70;95.30
3919;DHT22;1974;48.670;8.994;2023-10-08T15:05:47;21.70;95.20
3919;DHT22;1974;48.670;8.994;2023-10-08T15:08:15;21.70;95.80
3919;DHT22;1974;48.670;8.994;2023-10-08T15:10:44;21.70;96.30
3919;DHT22;1974;48.670;8.994;2023-10-08T15:13:12;21.60;96.70
3919;DHT22;1974;48.670;8.994;2023-10-08T15:15:39;21.60;96.70
3919;DHT22;1974;48.670;8.994;2023-10-08T15:18:07;21.60;95.20
3919;DHT22;1974;48.670;8.994;2023-10-08T15:20:37;21.70;94.30
3919;DHT22;1974;48.670;8.994;2023-10-08T15:23:07;21.90;94.00
3919;DHT22;1974;48.670;8.994;2023-10-08T15:25:37;22.00;93.90
3919;DHT22;1974;48.670;8.994;2023-10-08T15:28:05;22.00;94.30
3919;DHT22;1974;48.670;8.994;2023-10-08T15:30:33;22.00;94.10
3919;DHT22;1974;48.670;8.994;2023-10-08T15:33:00;21.90;94.10
3919;DHT22;1974;48.670;8.994;2023-10-08T15:35:27;21.90;93.90
3919;DHT22;1974;48.670;8.994;2023-10-08T15:37:54;21.90;93.80
3919;DHT22;1974;48.670;8.994;2023-10-08T15:40:23;21.80;94.20
3919;DHT22;1974;48.670;8.994;2023-10-08T15:42:50;21.80;94.50
3919;DHT22;1974;48.670;8.994;2023-10-08T15:45:17;21.70;94.40
3919;DHT22;1974;48.670;8.994;2023-10-08T15:47:45;21.80;94.60
3919;DHT22;1974;48.670;8.994;2023-10-08T15:50:12;21.80;94.70
3919;DHT22;1974;48.670;8.994;2023-10-08T15:52:39;21.90;95.00
3919;DHT22;1974;48.670;8.994;2023-10-08T15:55:06;21.80;95.10
3919;DHT22;1974;48.670;8.994;2023-10-08T15:57:35;21.70;96.40
3919;DHT22;1974;48.670;8.994;2023-10-08T16:00:02;21.70;96.10
3919;DHT22;1974;48.670;8.994;2023-10-08T16:02:29;21.60;95.60
3919;DHT22;1974;48.670;8.994;2023-10-08T16:04:56;21.60;95.80
3919;DHT22;1974;48.670;8.994;2023-10-08T16:07:23;21.60;96.70
3919;DHT22;1974;48.670;8.994;2023-10-08T16:09:50;21.50;95.60
3919;DHT22;1974;48.670;8.994;2023-10-08T16:12:17;21.50;95.90
3919;DHT22;1974;48.670;8.994;2023-10-08T16:14:45;21.40;97.10
3919;DHT22;1974;48.670;8.994;2023-10-08T16:17:12;21.30;98.40
3919;DHT22;1974;48.670;8.994;2023-10-08T16:19:41;21.10;99.80
3919;DHT22;1974;48.670;8.994;2023-10-08T16:22:08;21.00;99.90
3919;DHT22;1974;48.670;8.994;2023-10-08T16:24:36;20.90;99.90
3919;DHT22;1974;48.670;8.994;2023-10-08T16:27:03;20.80;99.90
3919;DHT22;1974;48.670;8.994;2023-10-08T16:29:30;20.70;99.90